createdAt,value
2022-11-23T00:02:14.868Z,4.40
2022-11-23T00:07:16.393Z,4.40
2022-11-23T00:12:17.776Z,4.15
2022-11-23T00:17:19.127Z,4.35
2022-11-23T00:22:20.768Z,4.18
2022-11-23T00:27:22.162Z,4.07
2022-11-23T00:32:23.523Z,4.20
2022-11-23T00:37:24.979Z,4.40
2022-11-23T00:42:26.370Z,4.38
2022-11-23T00:47:27.760Z,4.65
2022-11-23T00:52:29.148Z,4.10
2022-11-23T00:57:30.543Z,3.85
2022-11-23T01:02:35.443Z,3.97
2022-11-23T01:07:39.424Z,3.65
2022-11-23T01:12:40.847Z,3.72
2022-11-23T01:17:42.211Z,3.55
2022-11-23T01:22:43.679Z,3.28
2022-11-23T01:27:45.043Z,3.30
2022-11-23T01:32:46.395Z,4.25
2022-11-23T01:37:47.774Z,4.32
2022-11-23T01:42:56.242Z,3.75
2022-11-23T01:47:57.667Z,3.80
2022-11-23T01:52:59.403Z,4.07
2022-11-23T01:58:02.282Z,4.50
2022-11-23T02:03:05.346Z,4.20
2022-11-23T02:08:07.508Z,3.80
2022-11-23T02:13:12.003Z,4.20
2022-11-23T02:18:18.418Z,4.18
2022-11-23T02:24:12.680Z,4.22
2022-11-23T02:29:23.348Z,4.53
2022-11-23T02:34:25.791Z,4.25
2022-11-23T02:39:42.579Z,3.90
2022-11-23T02:45:00.492Z,3.85
2022-11-23T02:50:01.856Z,4.00
2022-11-23T02:55:03.315Z,3.90
2022-11-23T03:00:05.279Z,3.97
2022-11-23T03:05:07.051Z,4.00
2022-11-23T03:10:09.090Z,4.13
2022-11-23T03:15:10.854Z,3.55
2022-11-23T03:20:16.337Z,3.75
2022-11-23T03:25:20.332Z,4.25
2022-11-23T03:30:25.007Z,4.13
2022-11-23T03:35:27.346Z,4.07
2022-11-23T03:40:46.927Z,4.07
2022-11-23T03:45:59.453Z,4.03
2022-11-23T03:51:00.867Z,3.90
2022-11-23T03:56:02.378Z,4.57
2022-11-23T04:01:08.932Z,3.95
2022-11-23T04:06:11.303Z,4.05
2022-11-23T04:11:32.950Z,4.18
2022-11-23T04:16:34.523Z,4.78
2022-11-23T04:21:36.695Z,4.30
2022-11-23T04:26:40.318Z,4.50
2022-11-23T04:31:43.679Z,4.50
2022-11-23T04:36:51.367Z,3.55
2022-11-23T04:41:56.324Z,4.20
2022-11-23T04:46:57.826Z,4.40
2022-11-23T04:52:00.193Z,4.40
2022-11-23T04:57:08.074Z,4.65
2022-11-23T05:02:10.145Z,4.63
2022-11-23T05:07:21.666Z,4.72
2022-11-23T05:12:29.566Z,4.25
2022-11-23T05:17:34.154Z,4.47
2022-11-23T05:22:35.791Z,4.22
2022-11-23T05:27:40.493Z,4.70
2022-11-23T05:32:42.723Z,4.15
2022-11-23T05:37:44.475Z,3.58
2022-11-23T05:42:47.234Z,4.57
2022-11-23T05:47:56.762Z,4.47
2022-11-23T05:53:10.031Z,4.57
2022-11-23T05:58:12.290Z,4.60
2022-11-23T06:03:13.766Z,5.28
2022-11-23T06:08:15.607Z,5.28
2022-11-23T06:13:17.136Z,5.20
2022-11-23T06:18:19.738Z,5.60
2022-11-23T06:23:24.896Z,5.32
2022-11-23T06:28:28.782Z,4.78
2022-11-23T06:33:32.899Z,4.88
2022-11-23T06:38:35.530Z,4.95
2022-11-23T06:43:41.996Z,4.28
2022-11-23T06:48:44.775Z,4.88
2022-11-23T06:53:47.581Z,4.85
2022-11-23T06:58:49.998Z,4.97
2022-11-23T07:03:56.609Z,4.15
2022-11-23T07:09:06.411Z,4.25
2022-11-23T07:14:26.459Z,3.42
2022-11-23T07:19:30.537Z,4.20
2022-11-23T07:24:39.497Z,3.78
2022-11-23T07:29:42.999Z,3.70
2022-11-23T07:34:54.683Z,3.35
2022-11-23T07:39:58.231Z,3.63
2022-11-23T07:45:04.036Z,3.63
2022-11-23T07:55:10.882Z,2.45
2022-11-23T08:00:12.779Z,3.00
2022-11-23T08:05:15.130Z,3.05
2022-11-23T08:10:16.648Z,3.37
2022-11-23T08:15:18.066Z,2.90
2022-11-23T08:20:19.441Z,2.72
2022-11-23T08:25:20.863Z,2.72
2022-11-23T08:30:22.256Z,2.60
2022-11-23T08:35:23.794Z,2.45
2022-11-23T08:40:25.965Z,2.38
2022-11-23T08:45:27.777Z,3.00
2022-11-23T08:50:29.649Z,3.78
2022-11-23T08:55:31.109Z,4.90
2022-11-23T09:00:32.851Z,6.57
2022-11-23T09:05:37.514Z,4.13
2022-11-23T09:10:39.093Z,2.80
2022-11-23T09:15:40.579Z,2.97
2022-11-23T09:20:42.091Z,3.17
2022-11-23T09:25:49.579Z,2.97
2022-11-23T09:30:50.966Z,2.63
2022-11-23T09:36:00.340Z,2.20
2022-11-23T09:41:34.209Z,2.50
2022-11-23T09:47:06.936Z,2.28
2022-11-23T09:52:16.643Z,2.13
2022-11-23T09:57:26.674Z,10.63
2022-11-23T10:02:31.386Z,16.55
2022-11-23T10:07:57.356Z,24.15
2022-11-23T10:13:38.367Z,9.32
2022-11-23T10:18:56.083Z,6.78
2022-11-23T10:24:19.913Z,7.40
2022-11-23T10:29:41.753Z,6.70
2022-11-23T10:35:02.305Z,7.70
2022-11-23T10:40:03.951Z,6.75
2022-11-23T10:45:05.968Z,8.00
2022-11-23T10:50:33.435Z,6.82
2022-11-23T10:55:58.026Z,7.22
2022-11-23T11:01:07.369Z,7.63
2022-11-23T11:06:11.084Z,6.88
2022-11-23T11:11:24.214Z,7.35
2022-11-23T11:16:30.891Z,6.60
2022-11-23T11:21:34.954Z,6.47
2022-11-23T11:26:48.816Z,7.45
2022-11-23T11:31:56.142Z,7.68
2022-11-23T11:37:17.696Z,7.45
2022-11-23T11:42:27.640Z,8.80
2022-11-23T11:47:36.371Z,8.88
2022-11-23T11:52:40.670Z,10.52
2022-11-23T11:57:59.301Z,11.10
2022-11-23T12:03:28.053Z,10.05
2022-11-23T12:08:57.947Z,12.20
2022-11-23T12:14:04.821Z,12.77
2022-11-23T12:19:14.411Z,13.48
2022-11-23T12:24:25.179Z,12.35
2022-11-23T12:29:59.640Z,12.75
2022-11-23T12:35:20.122Z,13.40
2022-11-23T12:40:36.441Z,15.20
2022-11-23T12:46:10.180Z,13.73
2022-11-23T12:51:40.449Z,13.85
2022-11-23T12:56:59.620Z,12.95
2022-11-23T13:02:09.518Z,13.65
2022-11-23T13:08:09.745Z,13.15
2022-11-23T13:21:26.683Z,13.73
2022-11-23T13:32:37.227Z,14.38
2022-11-23T13:38:00.148Z,14.85
2022-11-23T13:43:09.994Z,13.70
2022-11-23T13:48:34.348Z,14.77
2022-11-23T13:53:36.107Z,14.18
2022-11-23T13:58:39.587Z,15.40
2022-11-23T14:03:53.642Z,17.65
2022-11-23T14:09:05.755Z,17.35
2022-11-23T14:14:18.573Z,15.57
2022-11-23T14:25:54.725Z,14.60
2022-11-23T14:37:43.576Z,15.55
2022-11-23T14:43:42.438Z,16.23
2022-11-23T14:54:40.395Z,14.50
2022-11-23T15:00:34.339Z,15.77
2022-11-23T15:12:54.852Z,16.23
2022-11-23T15:18:01.844Z,14.38
2022-11-23T15:23:04.992Z,15.38
2022-11-23T15:28:28.211Z,16.15
2022-11-23T15:40:15.959Z,16.35
2022-11-23T15:46:09.293Z,11.65
2022-11-23T15:51:24.576Z,11.77
2022-11-23T15:56:37.131Z,9.88
2022-11-23T16:01:38.686Z,9.77
2022-11-23T16:06:48.240Z,8.45
2022-11-23T16:11:50.176Z,7.65
2022-11-23T16:17:04.581Z,6.93
2022-11-23T16:22:07.522Z,5.57
2022-11-23T16:39:42.008Z,11.93
2022-11-23T16:45:51.003Z,11.50
2022-11-23T16:57:41.723Z,6.53
2022-11-23T17:02:50.367Z,7.80
2022-11-23T17:09:10.259Z,7.82
2022-11-23T17:15:08.315Z,7.73
2022-11-23T17:55:10.492Z,6.32
2022-11-23T18:07:15.215Z,6.28
2022-11-23T18:12:17.253Z,6.95
2022-11-23T18:17:22.133Z,6.45
2022-11-23T18:22:23.942Z,6.50
2022-11-23T18:27:25.559Z,7.03
2022-11-23T18:32:26.956Z,6.85
2022-11-23T18:37:28.386Z,7.47
2022-11-23T18:42:29.863Z,7.15
2022-11-23T18:47:31.275Z,7.05
2022-11-23T18:52:32.643Z,6.40
2022-11-23T18:57:34.111Z,6.18
2022-11-23T19:02:35.590Z,6.05
2022-11-23T19:07:37.017Z,6.28
2022-11-23T19:12:38.416Z,5.68
2022-11-23T19:17:39.972Z,5.93
2022-11-23T19:22:41.393Z,6.28
2022-11-23T19:27:42.799Z,6.07
2022-11-23T19:32:44.391Z,6.15
2022-11-23T19:37:45.863Z,5.68
2022-11-23T19:42:47.295Z,5.85
2022-11-23T19:47:48.662Z,5.35
2022-11-23T19:53:11.366Z,5.78
2022-11-23T19:58:11.478Z,6.32
2022-11-23T20:03:13.763Z,5.63
2022-11-23T20:08:15.215Z,5.97
2022-11-23T20:13:16.627Z,5.90
2022-11-23T20:18:18.626Z,6.47
2022-11-23T20:23:19.990Z,5.57
2022-11-23T20:28:21.359Z,5.10
2022-11-23T20:33:22.776Z,5.13
2022-11-23T20:38:24.201Z,5.25
2022-11-23T20:43:25.608Z,5.47
2022-11-23T20:55:13.383Z,5.30
2022-11-23T21:00:17.049Z,6.45
2022-11-23T21:05:24.511Z,4.88
2022-11-23T21:49:57.739Z,4.65
2022-11-23T21:54:59.117Z,4.70
2022-11-23T22:00:00.486Z,5.07
2022-11-23T22:05:01.913Z,4.35
2022-11-23T22:10:03.628Z,4.30
2022-11-23T22:15:05.488Z,3.78
2022-11-23T22:20:07.584Z,3.45
2022-11-23T22:25:09.224Z,3.50
2022-11-23T22:30:10.901Z,4.07
2022-11-23T22:35:12.374Z,4.22
2022-11-23T22:40:14.025Z,4.28
2022-11-23T22:45:15.549Z,4.10
2022-11-23T22:50:16.946Z,4.13
2022-11-23T22:55:18.518Z,3.95
2022-11-23T23:00:20.044Z,4.25
2022-11-23T23:05:21.428Z,4.60
2022-11-23T23:10:23.916Z,4.40
2022-11-23T23:15:25.975Z,3.90
2022-11-23T23:20:27.359Z,4.65
2022-11-23T23:25:28.761Z,4.57
2022-11-23T23:30:30.124Z,3.85
2022-11-23T23:35:31.506Z,3.90
2022-11-23T23:40:32.903Z,3.80
2022-11-23T23:45:34.445Z,4.80
2022-11-23T23:50:36.841Z,4.07
2022-11-23T23:55:38.306Z,4.00
